sensor_id;sensor_type;location;lat;lon;timestamp;pressure;altitude;pressure_sealevel;temperature;humidity
69784;BME280;57054;51.978;4.498;2023-01-27T00:02:18;102633.47;;;5.02;96.06
69784;BME280;57054;51.978;4.498;2023-01-27T00:04:43;102628.28;;;5.02;95.94
69784;BME280;57054;51.978;4.498;2023-01-27T00:07:08;102629.16;;;5.03;95.94
69784;BME280;57054;51.978;4.498;2023-01-27T00:09:33;102630.88;;;5.02;96.13
69784;BME280;57054;51.978;4.498;2023-01-27T00:11:59;102636.09;;;5.02;96.30
69784;BME280;57054;51.978;4.498;2023-01-27T00:14:43;102627.41;;;5.03;96.31
69784;BME280;57054;51.978;4.498;2023-01-27T00:17:08;102621.38;;;5.03;96.26
69784;BME280;57054;51.978;4.498;2023-01-27T00:19:33;102626.56;;;5.03;96.13
69784;BME280;57054;51.978;4.498;2023-01-27T00:21:59;102621.38;;;5.03;96.07
69784;BME280;57054;51.978;4.498;2023-01-27T00:24:43;102617.91;;;5.04;96.16
69784;BME280;57054;51.978;4.498;2023-01-27T00:27:08;102619.63;;;5.03;96.18
69784;BME280;57054;51.978;4.498;2023-01-27T00:29:37;102622.22;;;5.03;96.09
69784;BME280;57054;51.978;4.498;2023-01-27T00:32:03;102617.91;;;5.02;96.01
69784;BME280;57054;51.978;4.498;2023-01-27T00:34:47;102618.75;;;5.03;95.72
69784;BME280;57054;51.978;4.498;2023-01-27T00:37:12;102608.34;;;5.01;95.45
69784;BME280;57054;51.978;4.498;2023-01-27T00:39:38;102604.91;;;5.00;95.14
69784;BME280;57054;51.978;4.498;2023-01-27T00:42:03;102611.78;;;5.00;94.33
69784;BME280;57054;51.978;4.498;2023-01-27T00:44:28;102608.34;;;4.99;94.16
69784;BME280;57054;51.978;4.498;2023-01-27T00:46:54;102611.78;;;5.00;94.11
69784;BME280;57054;51.978;4.498;2023-01-27T00:49:19;102610.94;;;4.99;93.99
69784;BME280;57054;51.978;4.498;2023-01-27T00:51:44;102605.75;;;4.99;94.20
69784;BME280;57054;51.978;4.498;2023-01-27T00:54:10;102610.06;;;4.99;94.42
69784;BME280;57054;51.978;4.498;2023-01-27T00:56:36;102612.66;;;4.99;94.44
69784;BME280;57054;51.978;4.498;2023-01-27T00:59:01;102617.00;;;4.98;94.78
69784;BME280;57054;51.978;4.498;2023-01-27T01:01:27;102615.25;;;4.97;94.57
69784;BME280;57054;51.978;4.498;2023-01-27T01:03:52;102622.19;;;4.98;94.48
69784;BME280;57054;51.978;4.498;2023-01-27T01:06:18;102623.88;;;4.98;94.58
69784;BME280;57054;51.978;4.498;2023-01-27T01:08:44;102624.78;;;4.98;94.30
69784;BME280;57054;51.978;4.498;2023-01-27T01:11:10;102625.66;;;4.99;94.32
69784;BME280;57054;51.978;4.498;2023-01-27T01:13:37;102625.59;;;4.96;94.23
69784;BME280;57054;51.978;4.498;2023-01-27T01:16:06;102625.59;;;4.96;94.26
69784;BME280;57054;51.978;4.498;2023-01-27T01:18:32;102622.16;;;4.95;94.12
69784;BME280;57054;51.978;4.498;2023-01-27T01:20:57;102615.19;;;4.93;94.03
69784;BME280;57054;51.978;4.498;2023-01-27T01:23:22;102622.09;;;4.92;94.20
69784;BME280;57054;51.978;4.498;2023-01-27T01:25:54;102622.06;;;4.91;94.18
69784;BME280;57054;51.978;4.498;2023-01-27T01:28:20;102616.88;;;4.88;94.34
69784;BME280;57054;51.978;4.498;2023-01-27T01:30:45;102618.56;;;4.87;94.45
69784;BME280;57054;51.978;4.498;2023-01-27T01:33:10;102622.03;;;4.86;94.48
69784;BME280;57054;51.978;4.498;2023-01-27T01:35:36;102625.50;;;4.87;94.54
69784;BME280;57054;51.978;4.498;2023-01-27T01:38:02;102619.44;;;4.86;94.60
69784;BME280;57054;51.978;4.498;2023-01-27T01:40:27;102633.28;;;4.85;94.27
69784;BME280;57054;51.978;4.498;2023-01-27T01:48:06;102627.16;;;4.80;94.39
69784;BME280;57054;51.978;4.498;2023-01-27T01:50:34;102634.03;;;4.78;94.54
69784;BME280;57054;51.978;4.498;2023-01-27T01:53:00;102635.78;;;4.77;94.63
69784;BME280;57054;51.978;4.498;2023-01-27T01:55:26;102645.31;;;4.77;94.89
69784;BME280;57054;51.978;4.498;2023-01-27T01:57:51;102643.53;;;4.76;95.08
69784;BME280;57054;51.978;4.498;2023-01-27T02:00:16;102650.50;;;4.77;95.25
69784;BME280;57054;51.978;4.498;2023-01-27T02:02:42;102647.00;;;4.75;95.26
69784;BME280;57054;51.978;4.498;2023-01-27T02:05:15;102653.88;;;4.73;95.27
69784;BME280;57054;51.978;4.498;2023-01-27T02:07:52;102653.88;;;4.70;95.04
69784;BME280;57054;51.978;4.498;2023-01-27T02:10:18;102654.69;;;4.67;94.84
69784;BME280;57054;51.978;4.498;2023-01-27T02:12:44;102656.38;;;4.65;94.38
69784;BME280;57054;51.978;4.498;2023-01-27T02:15:09;102648.59;;;4.62;94.18
69784;BME280;57054;51.978;4.498;2023-01-27T02:17:35;102648.50;;;4.57;94.17
69784;BME280;57054;51.978;4.498;2023-01-27T02:25:35;102647.53;;;4.48;94.48
69784;BME280;57054;51.978;4.498;2023-01-27T02:28:01;102646.59;;;4.46;94.01
69784;BME280;57054;51.978;4.498;2023-01-27T02:30:26;102651.78;;;4.42;94.13
69784;BME280;57054;51.978;4.498;2023-01-27T02:32:51;102650.84;;;4.39;94.29
69784;BME280;57054;51.978;4.498;2023-01-27T02:35:20;102656.88;;;4.38;94.30
69784;BME280;57054;51.978;4.498;2023-01-27T02:37:47;102660.31;;;4.35;93.85
69784;BME280;57054;51.978;4.498;2023-01-27T02:40:14;102650.75;;;4.31;93.46
69784;BME280;57054;51.978;4.498;2023-01-27T02:42:40;102650.72;;;4.30;93.31
69784;BME280;57054;51.978;4.498;2023-01-27T02:45:05;102661.06;;;4.28;93.85
69784;BME280;57054;51.978;4.498;2023-01-27T02:47:31;102666.22;;;4.25;93.73
69784;BME280;57054;51.978;4.498;2023-01-27T02:49:56;102664.47;;;4.24;93.91
69784;BME280;57054;51.978;4.498;2023-01-27T02:52:21;102655.78;;;4.22;94.03
69784;BME280;57054;51.978;4.498;2023-01-27T02:54:47;102662.69;;;4.21;93.86
69784;BME280;57054;51.978;4.498;2023-01-27T02:57:12;102672.22;;;4.22;93.83
69784;BME280;57054;51.978;4.498;2023-01-27T02:59:37;102665.28;;;4.21;94.03
69784;BME280;57054;51.978;4.498;2023-01-27T03:02:02;102671.34;;;4.20;94.40
69784;BME280;57054;51.978;4.498;2023-01-27T03:04:28;102666.09;;;4.17;94.67
69784;BME280;57054;51.978;4.498;2023-01-27T03:06:53;102663.44;;;4.14;94.63
69784;BME280;57054;51.978;4.498;2023-01-27T03:09:19;102678.16;;;4.14;94.75
69784;BME280;57054;51.978;4.498;2023-01-27T03:11:44;102670.28;;;4.09;94.62
69784;BME280;57054;51.978;4.498;2023-01-27T03:14:28;102667.69;;;4.08;94.95
69784;BME280;57054;51.978;4.498;2023-01-27T03:17:12;102678.06;;;4.08;94.96
69784;BME280;57054;51.978;4.498;2023-01-27T03:19:56;102683.22;;;4.06;94.96
69784;BME280;57054;51.978;4.498;2023-01-27T03:22:21;102677.13;;;4.04;94.80
69784;BME280;57054;51.978;4.498;2023-01-27T03:24:47;102677.13;;;4.04;95.01
69784;BME280;57054;51.978;4.498;2023-01-27T03:27:12;102677.94;;;4.01;95.03
69784;BME280;57054;51.978;4.498;2023-01-27T03:29:37;102684.88;;;4.02;95.21
69784;BME280;57054;51.978;4.498;2023-01-27T03:32:29;102690.00;;;3.99;94.95
69784;BME280;57054;51.978;4.498;2023-01-27T03:34:54;102695.94;;;3.92;94.40
69784;BME280;57054;51.978;4.498;2023-01-27T03:37:31;102697.66;;;3.90;94.61
69784;BME280;57054;51.978;4.498;2023-01-27T03:40:15;102704.50;;;3.87;94.74
69784;BME280;57054;51.978;4.498;2023-01-27T03:42:59;102708.78;;;3.84;94.90
69784;BME280;57054;51.978;4.498;2023-01-27T03:45:45;102700.16;;;3.84;94.75
69784;BME280;57054;51.978;4.498;2023-01-27T03:48:30;102696.63;;;3.82;94.16
69784;BME280;57054;51.978;4.498;2023-01-27T03:50:59;102695.72;;;3.80;94.13
69784;BME280;57054;51.978;4.498;2023-01-27T03:53:24;102694.84;;;3.78;93.79
69784;BME280;57054;51.978;4.498;2023-01-27T03:55:49;102697.41;;;3.76;93.97
69784;BME280;57054;51.978;4.498;2023-01-27T04:00:48;102712.94;;;3.75;94.19
69784;BME280;57054;51.978;4.498;2023-01-27T04:03:14;102722.41;;;3.74;93.92
69784;BME280;57054;51.978;4.498;2023-01-27T04:06:01;102723.28;;;3.73;93.85
69784;BME280;57054;51.978;4.498;2023-01-27T04:08:45;102724.94;;;3.70;93.92
69784;BME280;57054;51.978;4.498;2023-01-27T04:11:10;102729.22;;;3.68;94.18
69784;BME280;57054;51.978;4.498;2023-01-27T04:13:54;102724.91;;;3.68;94.42
69784;BME280;57054;51.978;4.498;2023-01-27T04:16:19;102725.75;;;3.67;94.58
69784;BME280;57054;51.978;4.498;2023-01-27T04:18:53;102735.28;;;3.68;94.83
69784;BME280;57054;51.978;4.498;2023-01-27T04:21:18;102738.69;;;3.67;94.91
69784;BME280;57054;51.978;4.498;2023-01-27T04:23:43;102739.56;;;3.66;94.89
69784;BME280;57054;51.978;4.498;2023-01-27T04:26:09;102744.78;;;3.68;95.25
69784;BME280;57054;51.978;4.498;2023-01-27T04:28:34;102741.28;;;3.67;95.36
69784;BME280;57054;51.978;4.498;2023-01-27T04:31:00;102742.19;;;3.68;95.31
69784;BME280;57054;51.978;4.498;2023-01-27T04:33:25;102741.28;;;3.67;95.19
69784;BME280;57054;51.978;4.498;2023-01-27T04:35:50;102743.88;;;3.67;95.15
69784;BME280;57054;51.978;4.498;2023-01-27T04:38:16;102754.22;;;3.64;94.68
69784;BME280;57054;51.978;4.498;2023-01-27T04:40:41;102758.47;;;3.62;94.53
69784;BME280;57054;51.978;4.498;2023-01-27T04:43:07;102751.56;;;3.61;94.33
69784;BME280;57054;51.978;4.498;2023-01-27T04:45:32;102745.47;;;3.59;94.26
69784;BME280;57054;51.978;4.498;2023-01-27T04:47:57;102748.84;;;3.56;94.09
69784;BME280;57054;51.978;4.498;2023-01-27T04:50:23;102751.44;;;3.55;93.99
69784;BME280;57054;51.978;4.498;2023-01-27T04:52:48;102747.94;;;3.51;93.65
69784;BME280;57054;51.978;4.498;2023-01-27T04:55:13;102760.88;;;3.51;93.62
69784;BME280;57054;51.978;4.498;2023-01-27T04:57:38;102750.47;;;3.50;93.54
69784;BME280;57054;51.978;4.498;2023-01-27T05:00:04;102755.63;;;3.48;93.58
69784;BME280;57054;51.978;4.498;2023-01-27T05:02:30;102763.38;;;3.46;93.16
69784;BME280;57054;51.978;4.498;2023-01-27T05:04:55;102766.81;;;3.47;93.28
69784;BME280;57054;51.978;4.498;2023-01-27T05:07:20;102773.72;;;3.46;93.91
69784;BME280;57054;51.978;4.498;2023-01-27T05:09:45;102760.78;;;3.46;93.86
69784;BME280;57054;51.978;4.498;2023-01-27T05:12:11;102769.41;;;3.47;93.79
69784;BME280;57054;51.978;4.498;2023-01-27T05:14:36;102759.91;;;3.46;93.29
69784;BME280;57054;51.978;4.498;2023-01-27T05:17:01;102763.38;;;3.46;93.05
69784;BME280;57054;51.978;4.498;2023-01-27T05:19:27;102762.50;;;3.46;92.72
69784;BME280;57054;51.978;4.498;2023-01-27T05:21:52;102762.47;;;3.44;92.50
69784;BME280;57054;51.978;4.498;2023-01-27T05:24:17;102765.94;;;3.46;92.30
69784;BME280;57054;51.978;4.498;2023-01-27T05:26:42;102772.88;;;3.46;92.09
69784;BME280;57054;51.978;4.498;2023-01-27T05:29:08;102767.69;;;3.46;92.18
69784;BME280;57054;51.978;4.498;2023-01-27T05:31:33;102767.69;;;3.46;92.33
69784;BME280;57054;51.978;4.498;2023-01-27T05:33:59;102773.75;;;3.48;92.31
69784;BME280;57054;51.978;4.498;2023-01-27T05:36:24;102773.75;;;3.48;92.10
69784;BME280;57054;51.978;4.498;2023-01-27T05:38:50;102767.72;;;3.49;91.85
69784;BME280;57054;51.978;4.498;2023-01-27T05:41:16;102775.50;;;3.49;91.59
69784;BME280;57054;51.978;4.498;2023-01-27T05:43:42;102782.44;;;3.50;91.56
69784;BME280;57054;51.978;4.498;2023-01-27T05:46:09;102779.84;;;3.50;91.36
69784;BME280;57054;51.978;4.498;2023-01-27T05:48:35;102779.00;;;3.51;91.48
69784;BME280;57054;51.978;4.498;2023-01-27T05:51:00;102772.06;;;3.50;91.30
69784;BME280;57054;51.978;4.498;2023-01-27T05:53:26;102771.25;;;3.51;91.64
69784;BME280;57054;51.978;4.498;2023-01-27T05:55:52;102779.00;;;3.51;91.51
69784;BME280;57054;51.978;4.498;2023-01-27T05:58:17;102767.75;;;3.51;91.15
69784;BME280;57054;51.978;4.498;2023-01-27T06:00:43;102781.59;;;3.51;91.20
69784;BME280;57054;51.978;4.498;2023-01-27T06:03:09;102781.59;;;3.53;90.55
69784;BME280;57054;51.978;4.498;2023-01-27T06:05:34;102792.00;;;3.54;90.69
69784;BME280;57054;51.978;4.498;2023-01-27T06:07:59;102780.75;;;3.52;90.38
69784;BME280;57054;51.978;4.498;2023-01-27T06:10:24;102790.28;;;3.53;90.48
69784;BME280;57054;51.978;4.498;2023-01-27T06:12:50;102784.22;;;3.54;90.60
69784;BME280;57054;51.978;4.498;2023-01-27T06:15:15;102786.81;;;3.54;90.33
69784;BME280;57054;51.978;4.498;2023-01-27T06:17:40;102794.59;;;3.54;90.22
69784;BME280;57054;51.978;4.498;2023-01-27T06:20:05;102780.78;;;3.54;89.83
69784;BME280;57054;51.978;4.498;2023-01-27T06:22:31;102784.22;;;3.54;89.70
69784;BME280;57054;51.978;4.498;2023-01-27T06:24:56;102795.50;;;3.55;89.67
69784;BME280;57054;51.978;4.498;2023-01-27T06:27:21;102797.19;;;3.54;89.25
69784;BME280;57054;51.978;4.498;2023-01-27T06:29:47;102796.34;;;3.55;89.34
69784;BME280;57054;51.978;4.498;2023-01-27T06:32:12;102799.81;;;3.56;89.43
69784;BME280;57054;51.978;4.498;2023-01-27T06:34:37;102801.53;;;3.55;89.39
69784;BME280;57054;51.978;4.498;2023-01-27T06:37:03;102805.00;;;3.56;89.19
69784;BME280;57054;51.978;4.498;2023-01-27T06:39:28;102802.41;;;3.56;88.92
69784;BME280;57054;51.978;4.498;2023-01-27T06:41:53;102808.44;;;3.56;88.65
69784;BME280;57054;51.978;4.498;2023-01-27T06:44:19;102805.00;;;3.56;88.81
69784;BME280;57054;51.978;4.498;2023-01-27T06:46:44;102814.50;;;3.55;88.80
69784;BME280;57054;51.978;4.498;2023-01-27T06:49:09;102816.22;;;3.56;88.81
69784;BME280;57054;51.978;4.498;2023-01-27T06:51:34;102817.09;;;3.55;88.48
69784;BME280;57054;51.978;4.498;2023-01-27T06:54:00;102818.78;;;3.53;87.64
69784;BME280;57054;51.978;4.498;2023-01-27T06:56:25;102828.28;;;3.54;87.36
69784;BME280;57054;51.978;4.498;2023-01-27T06:58:50;102825.69;;;3.54;87.47
69784;BME280;57054;51.978;4.498;2023-01-27T07:01:15;102825.66;;;3.53;87.14
69784;BME280;57054;51.978;4.498;2023-01-27T07:03:41;102818.78;;;3.53;87.17
69784;BME280;57054;51.978;4.498;2023-01-27T07:06:06;102817.88;;;3.51;85.98
69784;BME280;57054;51.978;4.498;2023-01-27T07:08:32;102822.16;;;3.51;86.02
69784;BME280;57054;51.978;4.498;2023-01-27T07:11:00;102829.06;;;3.50;85.89
69784;BME280;57054;51.978;4.498;2023-01-27T07:13:25;102832.53;;;3.51;86.26
69784;BME280;57054;51.978;4.498;2023-01-27T07:15:54;102830.81;;;3.51;86.59
69784;BME280;57054;51.978;4.498;2023-01-27T07:18:20;102822.16;;;3.51;86.61
69784;BME280;57054;51.978;4.498;2023-01-27T07:20:45;102824.75;;;3.51;86.53
69784;BME280;57054;51.978;4.498;2023-01-27T07:23:10;102829.09;;;3.52;86.74
69784;BME280;57054;51.978;4.498;2023-01-27T07:25:37;102829.06;;;3.50;86.39
69784;BME280;57054;51.978;4.498;2023-01-27T07:28:03;102823.03;;;3.50;86.43
69784;BME280;57054;51.978;4.498;2023-01-27T07:30:28;102829.06;;;3.50;86.33
69784;BME280;57054;51.978;4.498;2023-01-27T07:32:53;102831.66;;;3.50;86.49
69784;BME280;57054;51.978;4.498;2023-01-27T07:35:19;102831.66;;;3.50;86.21
69784;BME280;57054;51.978;4.498;2023-01-27T07:37:45;102828.22;;;3.51;86.63
69784;BME280;57054;51.978;4.498;2023-01-27T07:40:10;102838.59;;;3.51;86.90
69784;BME280;57054;51.978;4.498;2023-01-27T07:42:37;102847.22;;;3.52;87.45
69784;BME280;57054;51.978;4.498;2023-01-27T07:45:02;102854.16;;;3.53;87.39
69784;BME280;57054;51.978;4.498;2023-01-27T07:47:28;102856.78;;;3.54;87.50
69784;BME280;57054;51.978;4.498;2023-01-27T07:49:53;102858.50;;;3.54;87.63
69784;BME280;57054;51.978;4.498;2023-01-27T07:52:18;102862.84;;;3.55;87.81
69784;BME280;57054;51.978;4.498;2023-01-27T07:54:43;102860.28;;;3.56;87.93
69784;BME280;57054;51.978;4.498;2023-01-27T07:57:09;102867.19;;;3.56;87.65
69784;BME280;57054;51.978;4.498;2023-01-27T07:59:34;102861.06;;;3.52;86.31
69784;BME280;57054;51.978;4.498;2023-01-27T08:01:59;102868.78;;;3.51;86.29
69784;BME280;57054;51.978;4.498;2023-01-27T08:04:24;102875.69;;;3.50;86.50
69784;BME280;57054;51.978;4.498;2023-01-27T08:06:50;102880.00;;;3.50;86.87
69784;BME280;57054;51.978;4.498;2023-01-27T08:09:15;102883.44;;;3.49;86.87
69784;BME280;57054;51.978;4.498;2023-01-27T08:11:41;102890.31;;;3.46;87.10
69784;BME280;57054;51.978;4.498;2023-01-27T08:14:06;102888.53;;;3.44;87.43
69784;BME280;57054;51.978;4.498;2023-01-27T08:16:31;102887.63;;;3.43;87.24
69784;BME280;57054;51.978;4.498;2023-01-27T08:18:56;102885.00;;;3.42;87.35
69784;BME280;57054;51.978;4.498;2023-01-27T08:21:22;102886.72;;;3.41;86.86
69784;BME280;57054;51.978;4.498;2023-01-27T08:23:49;102897.00;;;3.38;86.27
69784;BME280;57054;51.978;4.498;2023-01-27T08:26:14;102892.66;;;3.36;86.06
69784;BME280;57054;51.978;4.498;2023-01-27T08:28:39;102896.09;;;3.35;86.11
69784;BME280;57054;51.978;4.498;2023-01-27T08:31:09;102892.56;;;3.33;86.17
69784;BME280;57054;51.978;4.498;2023-01-27T08:33:35;102898.63;;;3.32;85.83
69784;BME280;57054;51.978;4.498;2023-01-27T08:36:02;102896.81;;;3.29;85.69
69784;BME280;57054;51.978;4.498;2023-01-27T08:38:27;102901.09;;;3.27;85.31
69784;BME280;57054;51.978;4.498;2023-01-27T08:40:52;102893.28;;;3.25;84.96
69784;BME280;57054;51.978;4.498;2023-01-27T08:43:18;102899.31;;;3.24;84.78
69784;BME280;57054;51.978;4.498;2023-01-27T08:45:44;102901.00;;;3.22;84.10
69784;BME280;57054;51.978;4.498;2023-01-27T08:48:10;102898.31;;;3.19;83.52
69784;BME280;57054;51.978;4.498;2023-01-27T08:50:36;102896.56;;;3.18;83.89
69784;BME280;57054;51.978;4.498;2023-01-27T08:53:01;102898.25;;;3.15;83.36
69784;BME280;57054;51.978;4.498;2023-01-27T08:55:28;102895.59;;;3.13;83.38
69784;BME280;57054;51.978;4.498;2023-01-27T08:57:53;102907.66;;;3.13;83.38
69784;BME280;57054;51.978;4.498;2023-01-27T09:00:19;102900.75;;;3.12;83.51
69784;BME280;57054;51.978;4.498;2023-01-27T09:02:44;102904.19;;;3.12;83.79
69784;BME280;57054;51.978;4.498;2023-01-27T09:05:10;102905.03;;;3.10;83.92
69784;BME280;57054;51.978;4.498;2023-01-27T09:07:35;102900.66;;;3.08;83.99
69784;BME280;57054;51.978;4.498;2023-01-27T09:10:00;102903.25;;;3.08;83.97
69784;BME280;57054;51.978;4.498;2023-01-27T09:12:26;102911.03;;;3.08;83.83
69784;BME280;57054;51.978;4.498;2023-01-27T09:14:51;102905.03;;;3.10;84.05
69784;BME280;57054;51.978;4.498;2023-01-27T09:17:16;102909.34;;;3.11;84.45
69784;BME280;57054;51.978;4.498;2023-01-27T09:19:44;102902.47;;;3.11;84.70
69784;BME280;57054;51.978;4.498;2023-01-27T09:22:09;102906.84;;;3.14;84.91
69784;BME280;57054;51.978;4.498;2023-01-27T09:24:34;102908.59;;;3.15;85.03
69784;BME280;57054;51.978;4.498;2023-01-27T09:26:59;102904.28;;;3.15;85.50
69784;BME280;57054;51.978;4.498;2023-01-27T09:29:25;102912.97;;;3.17;86.19
69784;BME280;57054;51.978;4.498;2023-01-27T09:31:50;102910.41;;;3.19;86.47
69784;BME280;57054;51.978;4.498;2023-01-27T09:34:15;102913.03;;;3.22;86.71
69784;BME280;57054;51.978;4.498;2023-01-27T09:36:42;102908.75;;;3.22;86.95
69784;BME280;57054;51.978;4.498;2023-01-27T09:39:10;102908.81;;;3.25;87.22
69784;BME280;57054;51.978;4.498;2023-01-27T09:41:41;102908.84;;;3.27;87.03
69784;BME280;57054;51.978;4.498;2023-01-27T09:49:26;102915.06;;;3.34;86.23
69784;BME280;57054;51.978;4.498;2023-01-27T09:57:33;102904.78;;;3.38;85.21
69784;BME280;57054;51.978;4.498;2023-01-27T10:03:13;102916.91;;;3.39;84.67
69784;BME280;57054;51.978;4.498;2023-01-27T10:13:57;102910.13;;;3.44;84.69
69784;BME280;57054;51.978;4.498;2023-01-27T10:16:32;102909.25;;;3.44;84.33
69784;BME280;57054;51.978;4.498;2023-01-27T10:26:49;102911.09;;;3.50;84.03
69784;BME280;57054;51.978;4.498;2023-01-27T10:29:25;102910.19;;;3.49;84.16
69784;BME280;57054;51.978;4.498;2023-01-27T10:31:55;102922.38;;;3.52;84.41
69784;BME280;57054;51.978;4.498;2023-01-27T10:36:50;102924.13;;;3.54;84.26
69784;BME280;57054;51.978;4.498;2023-01-27T10:39:32;102926.72;;;3.54;83.96
69784;BME280;57054;51.978;4.498;2023-01-27T10:49:22;102910.47;;;3.61;84.57
69784;BME280;57054;51.978;4.498;2023-01-27T10:51:52;102920.00;;;3.62;84.39
69784;BME280;57054;51.978;4.498;2023-01-27T10:56:53;102912.28;;;3.64;83.13
69784;BME280;57054;51.978;4.498;2023-01-27T11:01:53;102911.44;;;3.67;83.41
69784;BME280;57054;51.978;4.498;2023-01-27T11:04:27;102913.22;;;3.69;83.54
69784;BME280;57054;51.978;4.498;2023-01-27T11:06:55;102905.53;;;3.72;83.79
69784;BME280;57054;51.978;4.498;2023-01-27T11:09:27;102900.38;;;3.74;83.71
69784;BME280;57054;51.978;4.498;2023-01-27T11:11:55;102903.00;;;3.75;83.51
69784;BME280;57054;51.978;4.498;2023-01-27T11:16:55;102903.06;;;3.80;83.45
69784;BME280;57054;51.978;4.498;2023-01-27T11:19:39;102897.91;;;3.80;83.56
69784;BME280;57054;51.978;4.498;2023-01-27T11:22:13;102898.78;;;3.80;83.69
69784;BME280;57054;51.978;4.498;2023-01-27T11:24:46;102897.91;;;3.80;83.68
69784;BME280;57054;51.978;4.498;2023-01-27T11:27:18;102898.78;;;3.80;84.53
69784;BME280;57054;51.978;4.498;2023-01-27T11:29:47;102897.03;;;3.79;84.64
69784;BME280;57054;51.978;4.498;2023-01-27T11:32:21;102902.25;;;3.81;84.69
69784;BME280;57054;51.978;4.498;2023-01-27T11:37:25;102892.78;;;3.83;84.38
69784;BME280;57054;51.978;4.498;2023-01-27T11:39:51;102897.13;;;3.84;84.02
69784;BME280;57054;51.978;4.498;2023-01-27T11:42:16;102899.72;;;3.85;84.33
69784;BME280;57054;51.978;4.498;2023-01-27T11:44:42;102891.09;;;3.85;84.57
69784;BME280;57054;51.978;4.498;2023-01-27T11:47:20;102885.94;;;3.87;84.43
69784;BME280;57054;51.978;4.498;2023-01-27T11:49:47;102888.56;;;3.88;84.73
69784;BME280;57054;51.978;4.498;2023-01-27T11:52:13;102888.59;;;3.90;84.71
69784;BME280;57054;51.978;4.498;2023-01-27T11:54:42;102887.75;;;3.91;84.93
69784;BME280;57054;51.978;4.498;2023-01-27T11:57:19;102885.16;;;3.91;85.12
69784;BME280;57054;51.978;4.498;2023-01-27T11:59:46;102884.31;;;3.92;85.40
69784;BME280;57054;51.978;4.498;2023-01-27T12:04:44;102873.09;;;3.91;85.16
69784;BME280;57054;51.978;4.498;2023-01-27T12:07:19;102871.34;;;3.92;85.13
69784;BME280;57054;51.978;4.498;2023-01-27T12:09:47;102867.03;;;3.92;85.53
69784;BME280;57054;51.978;4.498;2023-01-27T12:14:38;102870.50;;;3.93;85.40
69784;BME280;57054;51.978;4.498;2023-01-27T12:17:04;102867.94;;;3.94;85.07
69784;BME280;57054;51.978;4.498;2023-01-27T12:19:34;102863.66;;;3.95;84.68
69784;BME280;57054;51.978;4.498;2023-01-27T12:22:14;102863.66;;;3.96;84.75
69784;BME280;57054;51.978;4.498;2023-01-27T12:24:48;102867.09;;;3.95;84.60
69784;BME280;57054;51.978;4.498;2023-01-27T12:27:25;102862.78;;;3.96;84.33
69784;BME280;57054;51.978;4.498;2023-01-27T12:29:55;102863.66;;;3.96;84.67
69784;BME280;57054;51.978;4.498;2023-01-27T12:32:23;102868.00;;;3.97;84.52
69784;BME280;57054;51.978;4.498;2023-01-27T12:34:51;102868.00;;;3.97;84.43
69784;BME280;57054;51.978;4.498;2023-01-27T12:37:28;102870.59;;;3.97;84.41
69784;BME280;57054;51.978;4.498;2023-01-27T12:39:55;102863.69;;;3.98;84.41
69784;BME280;57054;51.978;4.498;2023-01-27T12:42:31;102854.19;;;3.97;84.67
69784;BME280;57054;51.978;4.498;2023-01-27T12:44:57;102855.88;;;3.96;84.92
69784;BME280;57054;51.978;4.498;2023-01-27T12:47:27;102862.81;;;3.97;84.41
69784;BME280;57054;51.978;4.498;2023-01-27T12:52:36;102847.22;;;3.96;84.58
69784;BME280;57054;51.978;4.498;2023-01-27T12:55:01;102839.47;;;3.96;84.80
69784;BME280;57054;51.978;4.498;2023-01-27T12:57:27;102853.31;;;3.98;85.04
69784;BME280;57054;51.978;4.498;2023-01-27T12:59:56;102847.28;;;3.97;84.67
69784;BME280;57054;51.978;4.498;2023-01-27T13:02:23;102848.09;;;3.96;84.83
69784;BME280;57054;51.978;4.498;2023-01-27T13:04:59;102843.81;;;3.97;84.82
69784;BME280;57054;51.978;4.498;2023-01-27T13:07:27;102851.59;;;3.97;85.37
69784;BME280;57054;51.978;4.498;2023-01-27T13:10:03;102849.00;;;3.97;85.35
69784;BME280;57054;51.978;4.498;2023-01-27T13:12:30;102849.81;;;3.96;85.97
69784;BME280;57054;51.978;4.498;2023-01-27T13:14:57;102846.38;;;3.95;86.31
69784;BME280;57054;51.978;4.498;2023-01-27T13:17:45;102844.59;;;3.94;86.29
69784;BME280;57054;51.978;4.498;2023-01-27T13:20:23;102841.97;;;3.93;85.98
69784;BME280;57054;51.978;4.498;2023-01-27T13:22:58;102852.38;;;3.94;86.20
69784;BME280;57054;51.978;4.498;2023-01-27T13:25:26;102850.69;;;3.95;86.47
69784;BME280;57054;51.978;4.498;2023-01-27T13:27:53;102849.75;;;3.93;86.64
69784;BME280;57054;51.978;4.498;2023-01-27T13:32:52;102848.06;;;3.93;86.78
69784;BME280;57054;51.978;4.498;2023-01-27T13:35:30;102841.97;;;3.91;86.54
69784;BME280;57054;51.978;4.498;2023-01-27T13:38:09;102852.34;;;3.91;86.36
69784;BME280;57054;51.978;4.498;2023-01-27T13:40:37;102846.28;;;3.91;86.07
69784;BME280;57054;51.978;4.498;2023-01-27T13:46:16;102861.78;;;3.88;85.43
69784;BME280;57054;51.978;4.498;2023-01-27T13:48:56;102864.34;;;3.86;85.48
69784;BME280;57054;51.978;4.498;2023-01-27T13:51:22;102869.50;;;3.84;85.18
69784;BME280;57054;51.978;4.498;2023-01-27T13:54:02;102865.13;;;3.83;85.10
69784;BME280;57054;51.978;4.498;2023-01-27T13:56:32;102858.22;;;3.82;85.10
69784;BME280;57054;51.978;4.498;2023-01-27T14:01:41;102866.81;;;3.81;85.55
69784;BME280;57054;51.978;4.498;2023-01-27T14:14:48;102863.41;;;3.82;86.33
69784;BME280;57054;51.978;4.498;2023-01-27T14:17:41;102860.78;;;3.81;86.53
69784;BME280;57054;51.978;4.498;2023-01-27T14:27:48;102870.28;;;3.80;86.46
69784;BME280;57054;51.978;4.498;2023-01-27T14:35:35;102880.66;;;3.82;86.87
69784;BME280;57054;51.978;4.498;2023-01-27T14:40:50;102890.19;;;3.83;87.28
69784;BME280;57054;51.978;4.498;2023-01-27T14:43:25;102887.56;;;3.81;86.87
69784;BME280;57054;51.978;4.498;2023-01-27T14:45:54;102882.38;;;3.81;86.93
69784;BME280;57054;51.978;4.498;2023-01-27T14:59:01;102900.38;;;3.74;86.83
69784;BME280;57054;51.978;4.498;2023-01-27T15:01:33;102901.25;;;3.74;86.92